Time;durP1;ratioP1;P1;durP2;ratioP2;P2;SDS_P1;SDS_P2;PMS_P1;PMS_P2;Temp;Humidity;BMP_temperature;BMP_pressure;BME280_temperature;BME280_humidity;BME280_pressure;Samples;Min_cycle;Max_cycle;Signal;HPM_P1;HPM_P2
2022/05/21 00:00:09;;;;;;;6.33;5.00;;;;;;;15.74;54.72;101339.72;693981;28;1217;-78
2022/05/21 00:00:31;;;;;;;6.22;5.13;;;;;;;15.72;54.73;101323.00;696267;28;878;-79
2022/05/21 00:00:51;;;;;;;6.53;5.40;;;;;;;15.68;54.66;101329.09;693431;28;1107;-78
2022/05/21 00:01:12;;;;;;;6.88;5.68;;;;;;;15.80;54.55;101341.56;689208;28;1166;-78
2022/05/21 00:01:32;;;;;;;6.77;5.83;;;;;;;15.74;54.36;101337.94;687923;28;1161;-79
2022/05/21 00:01:54;;;;;;;8.07;5.93;;;;;;;15.72;54.36;101329.16;690657;28;914;-79
2022/05/21 00:02:15;;;;;;;7.22;5.45;;;;;;;15.69;54.56;101333.47;688408;28;1393;-79
2022/05/21 00:02:36;;;;;;;7.75;4.93;;;;;;;15.69;54.56;101328.22;690640;28;1177;-78
2022/05/21 00:02:57;;;;;;;8.48;5.18;;;;;;;15.90;54.28;101339.09;693189;28;1376;-79
2022/05/21 00:03:18;;;;;;;10.57;5.30;;;;;;;15.70;54.33;101330.88;685315;28;1159;-79
2022/05/21 00:03:40;;;;;;;9.80;5.50;;;;;;;15.71;54.42;101334.38;690503;28;1155;-79
2022/05/21 00:04:01;;;;;;;7.07;5.15;;;;;;;15.73;54.49;101336.19;690662;28;1484;-79
2022/05/21 00:04:21;;;;;;;6.80;5.13;;;;;;;15.86;54.32;101346.91;687294;28;1155;-79
2022/05/21 00:04:42;;;;;;;7.07;5.13;;;;;;;15.94;53.92;101339.13;685262;28;1981;-79
2022/05/21 00:05:04;;;;;;;7.15;5.00;;;;;;;15.98;53.98;101340.94;687784;28;1167;-79
2022/05/21 00:05:27;;;;;;;5.72;5.00;;;;;;;16.00;53.76;101339.22;695492;28;1234;-79
2022/05/21 00:05:47;;;;;;;5.63;5.05;;;;;;;15.87;54.14;101328.50;690712;28;1050;-79
2022/05/21 00:06:08;;;;;;;8.10;5.60;;;;;;;15.69;54.32;101328.22;690752;28;1224;-78
2022/05/21 00:06:29;;;;;;;11.63;5.80;;;;;;;15.68;54.22;101331.72;687297;28;898;-79
2022/05/21 00:06:49;;;;;;;11.05;5.78;;;;;;;15.68;54.20;101323.81;693360;28;1020;-78
2022/05/21 00:07:13;;;;;;;10.07;5.43;;;;;;;15.65;54.29;101322.03;690638;28;1277;-78
2022/05/21 00:07:33;;;;;;;6.57;5.43;;;;;;;15.65;54.23;101336.91;693501;28;870;-79
2022/05/21 00:07:54;;;;;;;5.80;5.20;;;;;;;15.67;54.26;101329.94;693482;28;1104;-78
2022/05/21 00:08:15;;;;;;;5.70;5.20;;;;;;;15.80;54.04;101339.78;688030;28;1457;-79
2022/05/21 00:08:36;;;;;;;6.35;4.90;;;;;;;15.87;53.75;101335.53;687829;28;832;-78
2022/05/21 00:09:02;;;;;;;7.00;4.88;;;;;;;15.87;53.73;101336.38;687984;28;1592;-78
2022/05/21 00:09:22;;;;;;;6.60;5.03;;;;;;;15.81;53.73;101324.91;690675;28;1138;-79
2022/05/21 00:09:43;;;;;;;6.22;4.88;;;;;;;15.90;53.62;101322.41;689080;28;1310;-79
2022/05/21 00:10:05;;;;;;;5.87;5.00;;;;;;;15.91;53.66;101337.31;688038;28;1087;-80
2022/05/21 00:10:27;;;;;;;6.57;5.10;;;;;;;15.99;53.49;101332.19;682770;29;859;-77
2022/05/21 00:10:47;;;;;;;7.03;5.00;;;;;;;15.68;53.87;101315.94;687916;28;1155;-79
2022/05/21 00:11:08;;;;;;;8.18;4.97;;;;;;;15.62;53.96;101320.22;688211;28;1380;-79
2022/05/21 00:11:29;;;;;;;7.90;5.20;;;;;;;15.78;53.87;101328.34;690773;28;826;-79
2022/05/21 00:11:49;;;;;;;7.45;5.40;;;;;;;15.93;53.64;101324.19;690494;28;1367;-79
2022/05/21 00:12:10;;;;;;;6.50;5.28;;;;;;;15.95;53.47;101333.88;693250;28;1153;-79
2022/05/21 00:12:31;;;;;;;6.53;5.00;;;;;;;15.92;53.49;101327.69;688059;28;974;-78
2022/05/21 00:12:52;;;;;;;7.82;5.00;;;;;;;15.91;53.52;101321.53;685222;28;1186;-78
2022/05/21 00:13:13;;;;;;;9.05;5.13;;;;;;;15.75;53.85;101333.59;685334;28;1460;-78
2022/05/21 00:13:34;;;;;;;8.20;5.17;;;;;;;15.68;54.33;101331.72;688022;28;1255;-79
2022/05/21 00:13:56;;;;;;;8.55;5.20;;;;;;;15.61;54.29;101331.63;693210;28;926;-79
2022/05/21 00:14:17;;;;;;;8.45;5.38;;;;;;;15.53;54.33;101332.34;692655;28;1213;-79
2022/05/21 00:14:38;;;;;;;7.85;5.25;;;;;;;15.56;54.39;101343.78;693175;28;1484;-78
2022/05/21 00:14:59;;;;;;;7.43;5.17;;;;;;;15.54;54.53;101340.25;690515;28;1145;-80
2022/05/21 00:15:24;;;;;;;6.75;4.90;;;;;;;15.54;54.69;101345.53;693416;28;1368;-79
2022/05/21 00:15:45;;;;;;;6.88;4.85;;;;;;;15.47;54.79;101339.28;685581;28;1454;-79
2022/05/21 00:16:05;;;;;;;7.63;4.80;;;;;;;15.42;54.57;101333.06;690382;28;1185;-79
2022/05/21 00:16:26;;;;;;;9.95;4.90;;;;;;;15.55;54.46;101326.25;693077;28;1212;-79
2022/05/21 00:16:48;;;;;;;9.82;4.90;;;;;;;15.61;54.21;101328.97;687975;28;993;-78
2022/05/21 00:17:09;;;;;;;8.48;5.00;;;;;;;15.74;53.97;101327.44;687937;28;1456;-78
2022/05/21 00:17:30;;;;;;;8.90;5.32;;;;;;;15.87;53.61;101333.75;690438;28;1383;-79
2022/05/21 00:17:51;;;;;;;7.55;5.30;;;;;;;15.81;53.76;101336.31;690682;28;1004;-78
2022/05/21 00:18:12;;;;;;;7.07;5.20;;;;;;;15.79;53.63;101324.88;685447;28;958;-79
2022/05/21 00:18:33;;;;;;;7.53;5.10;;;;;;;15.88;53.51;101339.91;690760;28;808;-79
2022/05/21 00:18:53;;;;;;;8.73;5.20;;;;;;;15.79;53.68;101339.78;690568;28;1204;-79
2022/05/21 00:19:15;;;;;;;9.52;5.30;;;;;;;15.77;53.77;101331.84;687921;28;1188;-79
2022/05/21 00:19:35;;;;;;;10.45;5.50;;;;;;;15.80;53.65;101328.41;685030;28;800;-78
2022/05/21 00:19:56;;;;;;;8.70;5.10;;;;;;;15.72;53.63;101323.00;684889;28;1132;-78
2022/05/21 00:20:56;;;;;;;5.85;4.90;;;;;;;15.67;54.10;101330.81;693298;28;1266;-79
2022/05/21 00:21:17;;;;;;;6.40;4.93;;;;;;;15.63;54.23;101323.75;688004;28;1187;-78
2022/05/21 00:21:37;;;;;;;7.72;4.85;;;;;;;15.77;54.15;101331.84;688065;28;824;-78
2022/05/21 00:21:58;;;;;;;8.20;5.15;;;;;;;15.82;53.58;101330.19;684994;28;1101;-78
2022/05/21 00:22:19;;;;;;;7.72;5.00;;;;;;;15.93;53.42;101343.50;690555;28;1245;-79
2022/05/21 00:22:39;;;;;;;6.30;4.93;;;;;;;15.90;53.32;101325.94;693380;28;1337;-79
2022/05/21 00:23:09;;;;;;;6.43;4.65;;;;;;;15.97;53.50;101341.81;690437;28;1051;-78
2022/05/21 00:23:32;;;;;;;7.47;4.68;;;;;;;15.98;53.21;101331.28;687984;28;1120;-79
2022/05/21 00:23:53;;;;;;;7.90;4.90;;;;;;;16.00;53.26;101329.56;693473;28;865;-78
2022/05/21 00:24:14;;;;;;;8.10;5.03;;;;;;;16.04;53.35;101341.00;693326;28;1190;-79
2022/05/21 00:24:34;;;;;;;8.25;5.10;;;;;;;15.94;53.40;101324.22;693420;28;1912;-79
2022/05/21 00:25:04;;;;;;;8.17;5.20;;;;;;;16.07;53.27;101341.06;695796;28;900;-78
2022/05/21 00:25:25;;;;;;;7.90;4.90;;;;;;;16.02;53.43;101348.00;688017;28;958;-79
2022/05/21 00:25:51;;;;;;;7.32;4.82;;;;;;;15.97;53.34;101336.56;690606;28;1150;-80
2022/05/21 00:26:14;;;;;;;7.15;4.60;;;;;;;16.04;53.41;101341.00;687124;28;1057;-78
2022/05/21 00:26:35;;;;;;;6.90;4.60;;;;;;;15.95;53.29;101320.72;693335;28;1198;-79
2022/05/21 00:26:56;;;;;;;6.80;4.82;;;;;;;15.98;53.33;101346.22;695946;28;1168;-78
2022/05/21 00:27:16;;;;;;;5.82;5.10;;;;;;;16.00;53.36;101333.94;687865;28;1188;-78
2022/05/21 00:27:37;;;;;;;7.87;5.20;;;;;;;15.93;53.27;101324.19;687940;28;956;-79
2022/05/21 00:27:57;;;;;;;7.70;5.22;;;;;;;15.83;53.48;101331.97;687899;28;1057;-79
2022/05/21 00:28:18;;;;;;;7.40;5.07;;;;;;;15.94;53.39;101333.84;693314;28;961;-78
2022/05/21 00:28:41;;;;;;;5.40;4.80;;;;;;;16.06;53.14;101349.84;687948;28;1173;-79
2022/05/21 00:29:01;;;;;;;5.60;4.90;;;;;;;16.02;53.36;101335.75;688015;28;1035;-79
2022/05/21 00:29:25;;;;;;;5.80;5.20;;;;;;;15.92;53.27;101322.44;687957;28;819;-79
2022/05/21 00:29:46;;;;;;;6.43;5.40;;;;;;;15.97;53.11;101344.44;690030;28;1323;-80
2022/05/21 00:30:08;;;;;;;7.30;5.97;;;;;;;15.95;53.17;101336.53;690606;28;1186;-78
2022/05/21 00:30:29;;;;;;;8.93;6.20;;;;;;;16.05;53.23;101337.53;690643;28;791;-78
2022/05/21 00:30:49;;;;;;;9.80;6.50;;;;;;;15.95;53.58;101335.63;687870;28;1234;-79
2022/05/21 00:31:12;;;;;;;10.50;6.10;;;;;;;15.89;53.39;101331.16;690533;28;1157;-80
2022/05/21 00:31:33;;;;;;;8.65;5.63;;;;;;;15.92;53.58;101325.94;690743;28;1319;-79
2022/05/21 00:31:54;;;;;;;7.70;5.63;;;;;;;15.89;53.41;101337.31;693343;28;900;-78
2022/05/21 00:32:15;;;;;;;9.00;5.80;;;;;;;16.01;53.22;101339.25;690541;28;1185;-78
2022/05/21 00:32:35;;;;;;;10.00;6.05;;;;;;;16.08;52.93;101332.31;682607;28;1191;-79
2022/05/21 00:32:56;;;;;;;10.07;6.35;;;;;;;15.99;53.12;101326.91;687428;28;1181;-78
2022/05/21 00:33:17;;;;;;;7.60;5.93;;;;;;;15.99;53.26;101332.19;688007;28;1355;-79
2022/05/21 00:33:38;;;;;;;6.70;5.57;;;;;;;15.99;53.26;101348.84;688029;28;779;-78
2022/05/21 00:33:59;;;;;;;6.05;5.30;;;;;;;15.93;53.53;101334.72;687691;28;1206;-78
2022/05/21 00:34:20;;;;;;;7.68;5.80;;;;;;;16.04;53.23;101343.66;690678;28;1201;-78
2022/05/21 00:34:40;;;;;;;7.97;6.00;;;;;;;16.05;53.47;101342.81;693379;28;767;-79
2022/05/21 00:35:01;;;;;;;8.80;6.10;;;;;;;16.08;53.32;101348.09;687916;28;1103;-79
2022/05/21 00:35:22;;;;;;;7.97;5.80;;;;;;;16.10;53.19;101345.50;690524;28;1204;-79
2022/05/21 00:35:43;;;;;;;10.07;6.13;;;;;;;16.06;53.37;101339.31;685293;28;1375;-78
2022/05/21 00:36:04;;;;;;;10.53;6.50;;;;;;;15.99;53.39;101353.25;690023;28;1378;-79
2022/05/21 00:36:25;;;;;;;10.77;6.90;;;;;;;16.00;53.58;101339.22;689733;28;1209;-78
2022/05/21 00:36:46;;;;;;;10.57;6.68;;;;;;;15.95;53.43;101336.53;687875;28;1020;-79
2022/05/21 00:37:06;;;;;;;8.00;6.17;;;;;;;16.02;53.41;101361.16;687873;28;1093;-78
2022/05/21 00:37:27;;;;;;;8.97;6.10;;;;;;;15.98;53.40;101340.94;687930;28;1259;-79
2022/05/21 00:37:47;;;;;;;10.05;6.28;;;;;;;15.98;53.57;101346.22;690586;28;1108;-79
2022/05/21 00:38:09;;;;;;;10.67;6.43;;;;;;;16.00;53.50;101341.84;693247;28;1100;-79
2022/05/21 00:38:32;;;;;;;11.50;6.72;;;;;;;15.98;53.65;101348.84;693415;28;949;-79
2022/05/21 00:38:52;;;;;;;11.68;6.80;;;;;;;15.95;53.50;101340.88;687773;28;1263;-79
2022/05/21 00:39:19;;;;;;;11.40;6.90;;;;;;;15.96;53.38;101333.03;687952;28;1167;-79
2022/05/21 00:39:40;;;;;;;7.95;6.13;;;;;;;15.96;53.64;101333.03;687317;28;1095;-78
2022/05/21 00:40:00;;;;;;;8.38;6.10;;;;;;;15.87;53.64;101325.88;690429;28;1211;-79
2022/05/21 00:40:22;;;;;;;7.47;5.85;;;;;;;15.86;53.68;101329.34;690079;28;1327;-79
2022/05/21 00:40:43;;;;;;;8.25;5.88;;;;;;;15.87;53.51;101335.53;690665;28;1092;-78
2022/05/21 00:41:06;;;;;;;7.35;5.85;;;;;;;15.83;53.87;101342.47;687686;28;1260;-78
2022/05/21 00:41:26;;;;;;;8.32;6.20;;;;;;;15.82;54.01;101342.44;687974;28;1222;-79
2022/05/21 00:41:48;;;;;;;9.00;6.60;;;;;;;15.82;54.10;101345.09;685119;28;1259;-78
2022/05/21 00:42:09;;;;;;;9.15;6.63;;;;;;;15.76;54.04;101336.22;685281;28;1108;-79
2022/05/21 00:42:29;;;;;;;9.25;6.82;;;;;;;15.68;54.17;101327.31;687768;28;1156;-79
2022/05/21 00:42:50;;;;;;;10.90;6.70;;;;;;;15.73;54.37;101336.19;690418;28;1163;-78
2022/05/21 00:43:42;;;;;;;11.35;6.65;;;;;;;15.78;54.30;101338.03;690645;28;1013;-79
2022/05/21 00:44:03;;;;;;;9.52;6.63;;;;;;;15.73;54.22;101340.59;684926;28;1598;-79
2022/05/21 00:44:24;;;;;;;9.65;6.60;;;;;;;15.68;54.42;101336.97;687938;28;906;-79
2022/05/21 00:44:45;;;;;;;10.15;6.43;;;;;;;15.66;54.50;101339.56;687643;28;2027;-78
2022/05/21 00:45:06;;;;;;;10.47;6.70;;;;;;;15.56;54.77;101340.28;682647;28;1050;-79
2022/05/21 00:45:26;;;;;;;8.93;6.53;;;;;;;15.56;54.61;101333.28;682641;29;822;-79
2022/05/21 00:45:48;;;;;;;9.57;6.70;;;;;;;15.61;54.75;101336.88;687762;28;1343;-78
2022/05/21 00:46:14;;;;;;;9.88;6.38;;;;;;;15.69;54.61;101347.53;690519;28;1553;-79
2022/05/21 00:46:38;;;;;;;10.05;6.63;;;;;;;15.65;54.68;101344.81;687924;28;855;-79
2022/05/21 00:46:58;;;;;;;9.00;6.68;;;;;;;15.62;54.71;101343.91;685170;28;1264;-79
2022/05/21 00:47:19;;;;;;;7.87;6.40;;;;;;;15.58;54.81;101330.69;687991;28;1295;-78
2022/05/21 00:47:40;;;;;;;11.90;6.80;;;;;;;15.68;54.77;101342.25;685281;28;1485;-78
2022/05/21 00:48:01;;;;;;;13.38;7.05;;;;;;;15.59;54.78;101333.34;689991;28;1085;-78
2022/05/21 00:48:21;;;;;;;13.52;6.88;;;;;;;15.58;54.97;101331.56;687878;28;1061;-78
2022/05/21 00:48:44;;;;;;;9.50;6.67;;;;;;;15.68;54.79;101352.75;696063;28;1329;-78
2022/05/21 00:49:28;;;;;;;9.20;6.35;;;;;;;15.54;54.83;101342.91;693320;28;1388;-79
2022/05/21 00:49:49;;;;;;;10.10;6.40;;;;;;;15.60;54.92;101340.38;687628;28;1253;-79
2022/05/21 00:50:12;;;;;;;9.90;6.70;;;;;;;15.55;55.04;101334.13;690026;28;1161;-78
2022/05/21 00:50:33;;;;;;;9.85;6.63;;;;;;;15.68;54.96;101345.75;688019;28;859;-78
2022/05/21 00:50:53;;;;;;;11.10;6.55;;;;;;;15.65;54.84;101344.81;687890;28;1001;-78
2022/05/21 00:51:21;;;;;;;12.13;6.80;;;;;;;15.55;55.05;101334.13;693396;28;970;-79
2022/05/21 00:51:57;;;;;;;12.25;7.10;;;;;;;15.63;54.88;101343.03;693319;28;1107;-78
2022/05/21 00:52:22;;;;;;;9.00;6.72;;;;;;;15.60;54.93;101340.38;693100;28;1216;-79
2022/05/21 00:52:44;;;;;;;11.68;7.78;;;;;;;15.67;54.94;101348.38;692399;28;1399;-79
2022/05/21 00:53:04;;;;;;;12.20;8.00;;;;;;;15.74;54.96;101343.22;690441;28;1093;-79
2022/05/21 00:53:28;;;;;;;10.27;8.05;;;;;;;15.77;54.78;101345.00;690203;28;1233;-79
2022/05/21 00:53:52;;;;;;;10.57;8.55;;;;;;;15.66;54.85;101338.72;687747;28;1216;-78
2022/05/21 00:54:15;;;;;;;10.73;8.43;;;;;;;15.62;54.95;101346.53;684693;28;1225;-79
2022/05/21 00:54:43;;;;;;;10.25;7.82;;;;;;;15.58;55.19;101342.09;689945;28;1307;-79
2022/05/21 00:55:29;;;;;;;9.93;7.82;;;;;;;15.60;55.27;101340.38;693067;28;1299;-78
2022/05/21 00:55:51;;;;;;;11.90;9.02;;;;;;;15.65;55.18;101335.19;681311;28;1308;-78
2022/05/21 00:56:14;;;;;;;11.77;9.52;;;;;;;15.57;55.29;101350.84;690503;28;1364;-78
2022/05/21 00:56:41;;;;;;;12.93;9.73;;;;;;;15.63;54.98;101334.28;687794;28;1468;-79
2022/05/21 00:57:14;;;;;;;14.15;10.02;;;;;;;15.63;55.38;101343.03;693091;28;1405;-79
2022/05/21 00:57:39;;;;;;;12.88;9.48;;;;;;;15.73;55.09;101345.84;693161;28;1456;-78
2022/05/21 00:59:48;;;;;;;13.88;9.13;;;;;;;15.70;54.93;101324.72;692827;28;1284;-78
2022/05/21 01:00:18;;;;;;;15.05;9.50;;;;;;;15.83;54.87;101337.22;690582;28;1122;-79
2022/05/21 01:00:40;;;;;;;14.80;9.35;;;;;;;15.73;54.92;101337.94;688959;28;1217;-79
2022/05/21 01:01:01;;;;;;;13.75;9.00;;;;;;;15.76;55.05;101338.84;690579;28;1209;-79
2022/05/21 01:01:22;;;;;;;13.07;8.98;;;;;;;15.68;55.22;101340.47;687857;28;811;-79
2022/05/21 01:01:48;;;;;;;14.05;9.15;;;;;;;15.79;55.01;101337.16;687930;28;830;-79
2022/05/21 01:02:09;;;;;;;13.15;9.88;;;;;;;15.77;55.27;101342.38;690496;28;1145;-80
2022/05/21 01:02:35;;;;;;;14.40;10.30;;;;;;;15.70;55.11;101335.25;693221;28;1232;-79
2022/05/21 01:02:57;;;;;;;13.10;10.05;;;;;;;15.70;55.23;101330.00;693255;28;1347;-78
2022/05/21 01:03:18;;;;;;;12.10;9.82;;;;;;;15.72;55.15;101331.78;685169;28;1232;-79
2022/05/21 01:03:38;;;;;;;12.75;9.90;;;;;;;15.81;55.05;101338.94;685172;28;1072;-78
2022/05/21 01:03:59;;;;;;;12.52;9.98;;;;;;;15.78;54.99;101344.16;687836;28;1236;-79
2022/05/21 01:04:20;;;;;;;12.80;9.95;;;;;;;15.75;55.04;101334.44;685107;28;1438;-79
2022/05/21 01:04:45;;;;;;;12.43;9.53;;;;;;;15.81;54.91;101338.06;693181;28;1970;-78
2022/05/21 01:05:09;;;;;;;13.93;9.57;;;;;;;15.87;55.03;101339.03;693103;28;1284;-78
2022/05/21 01:05:30;;;;;;;15.38;9.88;;;;;;;15.88;54.91;101342.56;690382;28;1225;-78
2022/05/21 01:05:51;;;;;;;17.67;10.27;;;;;;;15.88;54.89;101335.53;692703;28;1281;-79
2022/05/21 01:06:12;;;;;;;15.65;10.20;;;;;;;15.92;54.75;101335.59;693170;28;1334;-78
2022/05/21 01:06:34;;;;;;;14.50;9.98;;;;;;;15.85;54.88;101335.50;690607;28;771;-79
2022/05/21 01:06:56;;;;;;;14.38;10.27;;;;;;;15.92;54.89;101339.09;693090;28;1458;-79
2022/05/21 01:07:18;;;;;;;15.70;10.80;;;;;;;15.92;54.78;101332.97;693172;28;1311;-79
2022/05/21 01:07:41;;;;;;;18.23;11.00;;;;;;;15.85;54.76;101334.63;690666;28;925;-79
2022/05/21 01:08:02;;;;;;;17.92;11.20;;;;;;;15.88;54.82;101342.56;687862;28;1009;-78
2022/05/21 01:08:23;;;;;;;16.23;10.82;;;;;;;15.79;54.95;101324.00;687959;28;1598;-78
2022/05/21 01:08:44;;;;;;;15.25;10.93;;;;;;;15.83;54.97;101328.44;687827;28;1261;-78
2022/05/21 01:09:05;;;;;;;15.35;10.73;;;;;;;15.78;54.97;101328.34;690586;28;1500;-79
2022/05/21 01:09:26;;;;;;;14.60;10.80;;;;;;;15.83;55.11;101334.59;692358;28;1338;-79
2022/05/21 01:09:54;;;;;;;13.88;10.60;;;;;;;15.75;55.05;101325.69;687495;28;1185;-77
2022/05/21 01:10:19;;;;;;;14.25;10.80;;;;;;;15.79;55.20;101340.66;685185;28;986;-78
2022/05/21 01:10:44;;;;;;;17.70;10.77;;;;;;;15.78;55.27;101338.88;695877;28;1216;-78
2022/05/21 01:11:14;;;;;;;18.13;11.20;;;;;;;15.72;55.27;101329.16;695999;28;1314;-78
2022/05/21 01:11:37;;;;;;;14.90;11.18;;;;;;;15.80;55.04;101333.66;690485;28;1185;-79
2022/05/21 01:11:59;;;;;;;16.05;11.00;;;;;;;15.80;55.16;101336.28;687856;28;1023;-79
2022/05/21 01:12:24;;;;;;;18.75;11.40;;;;;;;15.75;55.17;101336.22;690251;28;1052;-78
2022/05/21 01:12:49;;;;;;;19.95;11.65;;;;;;;15.77;55.23;101342.38;690604;28;983;-79
2022/05/21 01:13:15;;;;;;;17.48;11.15;;;;;;;15.83;55.32;101342.47;690030;28;1359;-78
2022/05/21 01:13:40;;;;;;;16.35;11.20;;;;;;;15.78;55.15;101341.50;687898;28;1201;-78
2022/05/21 01:14:05;;;;;;;18.35;12.50;;;;;;;15.85;55.26;101345.16;690387;28;1271;-78
2022/05/21 01:14:25;;;;;;;18.63;12.60;;;;;;;15.83;55.35;101342.47;690526;28;1189;-79
2022/05/21 01:14:49;;;;;;;19.05;12.52;;;;;;;15.81;55.11;101333.69;690594;28;993;-79
2022/05/21 01:15:14;;;;;;;17.92;12.32;;;;;;;15.87;55.20;101332.88;690590;28;967;-78
2022/05/21 01:15:40;;;;;;;19.70;12.60;;;;;;;15.80;55.06;101321.38;690652;28;908;-78
2022/05/21 01:16:00;;;;;;;18.77;12.43;;;;;;;15.92;55.21;101340.84;690649;28;942;-78
2022/05/21 01:16:21;;;;;;;18.60;12.80;;;;;;;15.89;55.14;101337.31;687797;28;1145;-79
2022/05/21 01:16:44;;;;;;;18.80;12.77;;;;;;;15.87;55.01;101336.38;692805;28;1072;-78
2022/05/21 01:17:05;;;;;;;18.77;12.82;;;;;;;15.93;54.97;101337.34;693211;28;1166;-79
2022/05/21 01:17:26;;;;;;;19.58;12.85;;;;;;;15.79;55.20;101338.03;690612;28;1365;-79
2022/05/21 01:17:47;;;;;;;19.60;12.82;;;;;;;15.68;55.43;101336.97;685297;28;1339;-78
2022/05/21 01:18:08;;;;;;;20.00;12.80;;;;;;;15.69;55.49;101341.38;690427;28;1107;-79
2022/05/21 01:18:29;;;;;;;18.05;12.50;;;;;;;15.65;55.38;101342.16;693216;28;1219;-78
2022/05/21 01:18:51;;;;;;;19.90;13.07;;;;;;;15.74;55.50;101340.59;690346;28;1198;-78
2022/05/21 01:19:11;;;;;;;19.95;13.45;;;;;;;15.74;55.42;101323.94;687755;28;1753;-79
2022/05/21 01:19:58;;;;;;;20.10;13.80;;;;;;;15.89;55.22;101347.84;687458;28;783;-79
2022/05/21 01:20:33;;;;;;;18.63;13.10;;;;;;;15.89;55.27;101344.31;689859;28;1211;-78
2022/05/21 01:20:56;;;;;;;17.95;13.30;;;;;;;15.94;55.12;101347.00;686977;28;1093;-78
2022/05/21 01:21:17;;;;;;;18.00;13.13;;;;;;;15.93;54.91;101345.25;684915;28;1376;-78
2022/05/21 01:21:38;;;;;;;18.30;12.53;;;;;;;15.82;55.12;101343.34;684767;28;926;-79
2022/05/21 01:21:59;;;;;;;21.15;13.00;;;;;;;15.84;55.14;101327.56;682384;29;1377;-78
2022/05/21 01:22:27;;;;;;;22.00;13.23;;;;;;;15.90;55.20;101346.09;687814;28;1056;-78
2022/05/21 01:22:51;;;;;;;20.38;13.05;;;;;;;15.90;55.10;101338.19;687189;28;1055;-78
2022/05/21 01:23:13;;;;;;;20.90;12.98;;;;;;;15.86;55.21;101339.88;682319;29;1236;-78
2022/05/21 01:23:34;;;;;;;20.27;13.23;;;;;;;15.85;55.12;101335.50;687826;28;1125;-78
2022/05/21 01:24:05;;;;;;;21.57;13.70;;;;;;;15.80;55.38;101329.25;682605;29;784;-78
2022/05/21 01:24:26;;;;;;;21.35;14.35;;;;;;;15.79;55.08;101332.75;685035;28;1677;-78
2022/05/21 01:24:47;;;;;;;21.80;14.70;;;;;;;15.49;55.72;101349.84;686861;28;1909;-78
2022/05/21 01:25:09;;;;;;;19.98;14.20;;;;;;;15.56;55.96;101349.06;687630;28;1545;-77
2022/05/21 01:25:31;;;;;;;18.92;13.30;;;;;;;15.49;56.03;101347.22;689975;28;1376;-79
2022/05/21 01:25:54;;;;;;;18.83;13.65;;;;;;;15.38;56.25;101339.13;684985;28;1076;-78
2022/05/21 01:26:21;;;;;;;19.33;13.95;;;;;;;15.39;56.24;101348.78;685058;28;1213;-78
2022/05/21 01:26:42;;;;;;;17.88;14.25;;;;;;;15.30;56.44;101330.22;690528;28;893;-79
2022/05/21 01:27:03;;;;;;;17.80;14.35;;;;;;;15.31;56.47;101337.25;690524;28;1273;-78
2022/05/21 01:27:26;;;;;;;20.03;14.83;;;;;;;15.25;56.60;101347.66;690073;28;1081;-78
2022/05/21 01:27:49;;;;;;;21.95;14.48;;;;;;;15.24;56.69;101344.13;690430;28;1016;-78
2022/05/21 01:28:14;;;;;;;20.13;13.43;;;;;;;15.17;56.86;101329.06;690594;28;1028;-79
2022/05/21 01:28:37;;;;;;;20.63;13.50;;;;;;;15.12;56.94;101331.63;690418;28;868;-78
2022/05/21 01:28:58;;;;;;;19.00;13.48;;;;;;;15.18;57.21;101352.75;690371;28;1170;-79
2022/05/21 01:29:25;;;;;;;18.77;13.40;;;;;;;15.15;57.23;101346.56;685143;28;1211;-78
2022/05/21 01:29:50;;;;;;;19.73;13.98;;;;;;;15.12;57.13;101336.00;687159;28;1183;-79
2022/05/21 01:30:33;;;;;;;22.27;14.38;;;;;;;15.18;57.21;101349.28;690631;28;863;-79
2022/05/21 01:30:59;;;;;;;19.65;13.70;;;;;;;15.14;57.36;101356.22;693023;28;1139;-78
2022/05/21 01:31:19;;;;;;;21.90;14.05;;;;;;;15.08;57.31;101343.81;690548;28;997;-78
2022/05/21 01:31:50;;;;;;;20.92;14.20;;;;;;;15.05;57.33;101345.50;685125;28;1175;-78
2022/05/21 01:32:16;;;;;;;22.60;14.18;;;;;;;15.06;57.33;101340.28;687741;28;1293;-78
2022/05/21 01:32:37;;;;;;;20.60;13.13;;;;;;;15.11;57.34;101350.88;687662;28;1288;-78
2022/05/21 01:33:01;;;;;;;18.80;13.10;;;;;;;15.14;57.28;101347.44;687722;28;1160;-79
2022/05/21 01:33:29;;;;;;;17.83;12.90;;;;;;;15.03;57.29;101337.63;687761;28;1264;-78
2022/05/21 01:33:49;;;;;;;17.92;13.48;;;;;;;15.18;57.01;101344.00;684986;28;1672;-78
2022/05/21 01:34:20;;;;;;;21.17;13.65;;;;;;;15.08;57.26;101340.31;687138;28;1319;-78
2022/05/21 01:34:41;;;;;;;20.20;12.93;;;;;;;15.12;57.28;101346.53;690378;28;1482;-79
2022/05/21 01:35:03;;;;;;;20.37;12.63;;;;;;;15.13;57.14;101338.63;690049;28;1784;-78
2022/05/21 01:35:24;;;;;;;21.65;13.45;;;;;;;15.04;57.26;101339.38;690537;28;1347;-78
2022/05/21 01:35:46;;;;;;;24.45;13.90;;;;;;;15.10;57.25;101343.84;690389;28;1313;-79
2022/05/21 01:36:09;;;;;;;22.48;14.00;;;;;;;14.98;57.31;101334.00;689507;28;1249;-78
2022/05/21 01:36:30;;;;;;;20.52;13.20;;;;;;;14.97;57.47;101342.75;687653;28;1190;-77
2022/05/21 01:36:52;;;;;;;17.15;12.68;;;;;;;14.91;57.59;101337.38;690508;28;937;-78
2022/05/21 01:37:12;;;;;;;17.73;12.70;;;;;;;14.88;57.78;101338.19;689295;28;1229;-78
2022/05/21 01:37:33;;;;;;;18.65;13.10;;;;;;;14.87;57.79;101343.44;685191;28;1251;-79
2022/05/21 01:37:54;;;;;;;19.42;13.02;;;;;;;14.95;57.56;101352.34;685162;28;943;-79
2022/05/21 01:38:17;;;;;;;18.33;12.87;;;;;;;14.91;57.73;101354.03;690503;28;1060;-79
2022/05/21 01:38:37;;;;;;;20.27;12.82;;;;;;;14.85;57.88;101347.75;693231;28;1249;-79
2022/05/21 01:39:32;;;;;;;21.30;13.07;;;;;;;14.86;58.13;101354.81;690479;28;968;-79
2022/05/21 01:39:52;;;;;;;16.60;11.93;;;;;;;14.74;58.33;101345.81;684690;28;1021;-79
2022/05/21 01:40:14;;;;;;;16.20;11.83;;;;;;;14.78;58.28;101349.38;687804;28;1116;-78
2022/05/21 01:40:36;;;;;;;15.93;11.80;;;;;;;14.76;58.24;101346.72;687837;28;1252;-79
2022/05/21 01:40:57;;;;;;;16.10;11.80;;;;;;;14.78;58.25;101341.50;690549;28;1096;-78
2022/05/21 01:41:18;;;;;;;16.30;11.82;;;;;;;14.69;58.40;101330.81;687556;28;1271;-79
2022/05/21 01:41:43;;;;;;;15.52;11.70;;;;;;;14.78;58.14;101352.91;687635;28;1280;-78
2022/05/21 01:42:04;;;;;;;15.73;11.88;;;;;;;14.75;58.02;101342.31;690124;28;1241;-79
2022/05/21 01:42:25;;;;;;;17.63;12.43;;;;;;;14.72;58.21;101337.03;690160;28;1409;-79
2022/05/21 01:44:52;;;;;;;19.25;11.32;;;;;;;14.62;58.51;101335.94;695750;28;1971;-79
2022/05/21 01:45:12;;;;;;;19.02;11.55;;;;;;;14.66;58.29;101336.88;690770;28;1150;-78
2022/05/21 01:45:33;;;;;;;18.30;11.48;;;;;;;14.62;58.37;101335.06;690480;28;717;-78
2022/05/21 01:45:54;;;;;;;17.15;11.32;;;;;;;14.61;58.36;101343.78;690423;28;1204;-78
2022/05/21 01:46:16;;;;;;;16.65;11.30;;;;;;;14.56;58.64;101330.56;687842;28;969;-79
2022/05/21 01:46:37;;;;;;;16.13;11.07;;;;;;;14.59;58.66;101332.38;682485;28;1209;-78
2022/05/21 01:46:57;;;;;;;15.93;11.10;;;;;;;14.64;58.46;101328.97;687565;28;1142;-78
2022/05/21 01:47:20;;;;;;;17.13;10.75;;;;;;;14.80;58.07;101343.31;690424;28;1166;-78
2022/05/21 01:47:44;;;;;;;17.35;11.30;;;;;;;14.78;57.90;101338.88;690453;28;1141;-78
2022/05/21 01:48:06;;;;;;;17.42;11.43;;;;;;;14.85;57.72;101332.88;687641;28;1229;-78
2022/05/21 01:48:28;;;;;;;18.40;12.30;;;;;;;14.93;57.95;101341.81;687751;28;1213;-79
2022/05/21 01:48:49;;;;;;;18.70;11.75;;;;;;;14.92;57.58;101347.91;685019;28;1198;-78
2022/05/21 01:49:10;;;;;;;18.33;11.02;;;;;;;14.96;57.68;101340.97;685013;28;1397;-78
2022/05/21 01:49:31;;;;;;;17.42;10.57;;;;;;;14.88;57.63;101334.69;687353;28;862;-79
2022/05/21 01:49:53;;;;;;;16.55;10.70;;;;;;;14.94;57.35;101334.81;686931;28;1134;-79
2022/05/21 01:50:14;;;;;;;14.85;10.90;;;;;;;14.98;57.56;101349.78;689254;28;1245;-78
2022/05/21 01:50:36;;;;;;;15.30;11.18;;;;;;;14.99;57.46;101340.16;693189;28;1144;-79
2022/05/21 01:50:56;;;;;;;15.57;11.70;;;;;;;14.93;57.53;101335.66;693211;28;1362;-78
2022/05/21 01:51:17;;;;;;;16.02;11.45;;;;;;;14.95;57.25;101331.31;693190;28;1059;-78
2022/05/21 01:51:38;;;;;;;15.93;11.20;;;;;;;14.89;57.26;101339.09;688336;28;1602;-78